createdAt,value
2017-11-08T00:00:15.453Z,213.63
2017-11-08T00:02:42.933Z,178.30
2017-11-08T00:05:10.377Z,176.90
2017-11-08T00:07:37.865Z,259.93
2017-11-08T00:10:05.409Z,155.87
2017-11-08T00:12:32.868Z,226.40
2017-11-08T00:15:00.311Z,305.00
2017-11-08T00:17:27.740Z,321.80
2017-11-08T00:19:58.125Z,225.13
2017-11-08T00:22:25.543Z,223.73
2017-11-08T00:24:52.977Z,264.77
2017-11-08T00:27:20.467Z,280.33
2017-11-08T00:29:47.893Z,211.63
2017-11-08T00:32:15.382Z,288.30
2017-11-08T00:34:42.839Z,152.23
2017-11-08T00:37:10.260Z,156.73
2017-11-08T00:39:37.740Z,223.33
2017-11-08T00:42:05.176Z,169.40
2017-11-08T00:44:32.673Z,207.50
2017-11-08T00:47:00.099Z,166.43
2017-11-08T00:49:27.572Z,110.77
2017-11-08T00:51:55.009Z,116.27
2017-11-08T00:54:22.485Z,136.50
2017-11-08T00:56:49.932Z,167.93
2017-11-08T00:59:17.364Z,184.57
2017-11-08T01:01:45.557Z,168.27
2017-11-08T01:04:12.990Z,128.40
2017-11-08T01:06:41.186Z,189.57
2017-11-08T01:09:08.619Z,192.10
2017-11-08T01:11:36.873Z,262.97
2017-11-08T01:14:04.401Z,217.70
2017-11-08T01:16:31.830Z,163.57
2017-11-08T01:18:59.265Z,216.50
2017-11-08T01:21:27.461Z,195.83
2017-11-08T01:23:55.768Z,153.27
2017-11-08T01:26:23.214Z,152.43
2017-11-08T01:28:50.677Z,162.70
2017-11-08T01:31:18.105Z,131.60
2017-11-08T01:33:45.543Z,142.17
2017-11-08T01:36:13.765Z,180.67
2017-11-08T01:38:43.093Z,155.40
2017-11-08T01:41:16.308Z,169.93
2017-11-08T01:43:44.533Z,162.67
2017-11-08T01:46:17.016Z,190.53
2017-11-08T01:48:44.465Z,171.70
2017-11-08T01:51:13.689Z,172.00
2017-11-08T01:53:41.133Z,137.73
2017-11-08T01:56:08.581Z,165.60
2017-11-08T01:58:36.041Z,127.10
2017-11-08T02:01:03.605Z,148.83
2017-11-08T02:03:31.053Z,168.73
2017-11-08T02:05:58.509Z,166.53
2017-11-08T02:08:25.973Z,126.30
2017-11-08T02:10:53.404Z,147.30
2017-11-08T02:13:20.885Z,153.00
2017-11-08T02:15:50.266Z,188.17
2017-11-08T02:18:24.256Z,170.07
2017-11-08T02:20:52.573Z,148.13
2017-11-08T02:23:20.043Z,199.03
2017-11-08T02:25:47.494Z,172.20
2017-11-08T02:28:17.905Z,172.80
2017-11-08T02:30:45.345Z,200.67
2017-11-08T02:33:14.554Z,199.40
2017-11-08T02:35:42.184Z,184.30
2017-11-08T02:38:09.689Z,173.00
2017-11-08T02:40:37.216Z,169.23
2017-11-08T02:43:08.285Z,172.53
2017-11-08T02:45:35.757Z,241.00
2017-11-08T02:48:03.216Z,173.30
2017-11-08T02:50:30.643Z,200.17
2017-11-08T02:52:59.621Z,189.13
2017-11-08T02:55:27.070Z,194.53
2017-11-08T02:57:54.637Z,197.20
2017-11-08T03:00:22.061Z,207.40
2017-11-08T03:02:50.301Z,225.63
2017-11-08T03:05:17.741Z,180.93
2017-11-08T03:07:45.179Z,197.30
2017-11-08T03:10:12.605Z,186.43
2017-11-08T03:12:40.046Z,192.93
2017-11-08T03:15:08.357Z,184.83
2017-11-08T03:17:35.821Z,210.83
2017-11-08T03:20:03.282Z,206.93
2017-11-08T03:22:30.736Z,231.07
2017-11-08T03:24:58.194Z,250.77
2017-11-08T03:27:25.628Z,194.40
2017-11-08T03:29:53.057Z,199.13
2017-11-08T03:32:20.494Z,209.40
2017-11-08T03:34:47.973Z,215.93
2017-11-08T03:37:15.401Z,216.60
2017-11-08T03:39:42.888Z,191.73
2017-11-08T03:42:10.337Z,224.57
2017-11-08T03:44:38.553Z,233.17
2017-11-08T03:47:05.984Z,223.30
2017-11-08T03:49:33.428Z,234.83
2017-11-08T03:52:01.627Z,217.27
2017-11-08T03:54:29.101Z,231.67
2017-11-08T03:56:56.548Z,226.07
2017-11-08T03:59:23.981Z,233.50
2017-11-08T04:01:51.419Z,241.67
2017-11-08T04:04:18.861Z,269.00
2017-11-08T04:06:46.384Z,249.87
2017-11-08T04:09:13.861Z,186.93
2017-11-08T04:11:41.323Z,229.40
2017-11-08T04:14:09.533Z,210.33
2017-11-08T04:16:36.993Z,196.37
2017-11-08T04:19:04.455Z,223.40
2017-11-08T04:21:31.905Z,210.77
2017-11-08T04:23:59.354Z,202.37
2017-11-08T04:26:26.821Z,195.13
2017-11-08T04:28:54.253Z,201.13
2017-11-08T04:31:21.681Z,232.20
2017-11-08T04:33:49.193Z,154.67
2017-11-08T04:36:16.628Z,214.40
2017-11-08T04:38:44.101Z,230.47
2017-11-08T04:41:11.577Z,243.03
2017-11-08T04:43:39.016Z,216.50
2017-11-08T04:46:06.477Z,216.63
2017-11-08T04:48:33.928Z,204.13
2017-11-08T04:51:01.392Z,204.63
2017-11-08T04:53:28.849Z,199.73
2017-11-08T04:55:56.285Z,193.60
2017-11-08T04:58:23.767Z,182.20
2017-11-08T05:00:51.225Z,172.50
2017-11-08T05:03:18.660Z,222.40
2017-11-08T05:05:46.136Z,199.73
2017-11-08T05:08:13.573Z,199.50
2017-11-08T05:10:41.011Z,197.67
2017-11-08T05:13:09.203Z,220.63
2017-11-08T05:15:36.631Z,207.37
2017-11-08T05:18:04.842Z,208.57
2017-11-08T05:20:32.317Z,222.77
2017-11-08T05:22:59.750Z,204.87
2017-11-08T05:25:27.236Z,211.13
2017-11-08T05:27:54.665Z,203.30
2017-11-08T05:30:22.092Z,200.73
2017-11-08T05:32:50.309Z,201.57
2017-11-08T05:35:17.773Z,189.27
2017-11-08T05:37:45.205Z,205.97
2017-11-08T05:40:12.688Z,209.20
2017-11-08T05:42:40.142Z,189.63
2017-11-08T05:45:07.580Z,198.77
2017-11-08T05:47:35.013Z,205.60
2017-11-08T05:50:03.219Z,196.20
2017-11-08T05:52:30.698Z,189.50
2017-11-08T05:54:58.139Z,200.63
2017-11-08T05:57:25.570Z,173.53
2017-11-08T05:59:53.762Z,190.43
2017-11-08T06:02:21.237Z,204.03
2017-11-08T06:04:48.665Z,219.77
2017-11-08T06:07:16.149Z,215.27
2017-11-08T06:09:43.605Z,211.07
2017-11-08T06:12:11.037Z,205.33
2017-11-08T06:14:38.471Z,176.63
2017-11-08T06:17:06.697Z,217.83
2017-11-08T06:19:34.129Z,224.17
2017-11-08T06:22:01.565Z,235.27
2017-11-08T06:24:29.789Z,234.87
2017-11-08T06:26:57.242Z,224.20
2017-11-08T06:29:24.653Z,211.17
2017-11-08T06:31:52.872Z,219.80
2017-11-08T06:34:20.310Z,200.50
2017-11-08T06:36:47.750Z,225.00
2017-11-08T06:39:15.218Z,224.27
2017-11-08T06:41:42.630Z,207.23
2017-11-08T06:44:10.066Z,191.60
2017-11-08T06:46:37.521Z,243.07
2017-11-08T06:49:05.057Z,238.20
2017-11-08T06:51:35.464Z,232.30
2017-11-08T06:54:02.901Z,225.13
2017-11-08T06:56:31.117Z,228.17
2017-11-08T06:58:58.549Z,213.00
2017-11-08T07:01:25.985Z,222.30
2017-11-08T07:03:54.181Z,232.07
2017-11-08T07:06:21.613Z,225.67
2017-11-08T07:08:49.836Z,221.70
2017-11-08T07:11:17.265Z,241.47
2017-11-08T07:13:44.757Z,224.00
2017-11-08T07:16:12.202Z,247.37
2017-11-08T07:18:39.662Z,278.37
2017-11-08T07:21:07.121Z,235.10
2017-11-08T07:23:34.566Z,224.53
2017-11-08T07:26:01.990Z,199.50
2017-11-08T07:28:30.193Z,226.40
2017-11-08T07:30:57.689Z,234.23
2017-11-08T07:33:25.122Z,238.80
2017-11-08T07:35:52.599Z,220.47
2017-11-08T07:38:20.037Z,251.67
2017-11-08T07:40:47.468Z,252.23
2017-11-08T07:43:14.920Z,222.27
2017-11-08T07:45:42.370Z,229.77
2017-11-08T07:48:10.861Z,200.67
2017-11-08T07:50:38.419Z,176.23
2017-11-08T07:53:05.856Z,160.17
2017-11-08T07:55:39.110Z,157.60
2017-11-08T07:58:06.545Z,170.77
2017-11-08T08:00:34.091Z,181.50
2017-11-08T08:03:01.518Z,169.83
2017-11-08T08:05:29.000Z,177.37
2017-11-08T08:07:57.378Z,166.50
2017-11-08T08:10:24.809Z,180.80
2017-11-08T08:12:52.293Z,158.90
2017-11-08T08:15:19.727Z,188.43
2017-11-08T08:17:47.152Z,207.17
2017-11-08T08:20:15.365Z,220.77
2017-11-08T08:22:42.796Z,238.10
2017-11-08T08:25:11.022Z,213.03
2017-11-08T08:27:38.457Z,211.20
2017-11-08T08:30:05.893Z,204.10
2017-11-08T08:32:33.331Z,216.07
2017-11-08T08:35:00.768Z,225.80
2017-11-08T08:37:28.218Z,209.43
2017-11-08T08:39:55.632Z,227.97
2017-11-08T08:42:23.074Z,213.00
2017-11-08T08:44:51.286Z,248.40
2017-11-08T08:47:18.745Z,216.80
2017-11-08T08:49:46.189Z,214.57
2017-11-08T08:52:13.622Z,252.00
2017-11-08T08:54:41.064Z,251.30
2017-11-08T08:57:09.286Z,211.23
2017-11-08T08:59:36.745Z,221.67
2017-11-08T09:02:09.927Z,216.30
2017-11-08T09:04:37.393Z,192.80
2017-11-08T09:07:04.865Z,201.40
2017-11-08T09:09:32.305Z,194.93
2017-11-08T09:11:59.746Z,181.43
2017-11-08T09:14:27.223Z,183.57
2017-11-08T09:16:54.670Z,201.70
2017-11-08T09:19:22.140Z,194.53
2017-11-08T09:21:49.597Z,198.80
2017-11-08T09:24:18.993Z,184.50
2017-11-08T09:26:46.457Z,172.23
2017-11-08T09:29:17.829Z,164.10
2017-11-08T09:31:45.267Z,171.20
2017-11-08T09:34:12.689Z,173.63
2017-11-08T09:36:40.153Z,162.10
2017-11-08T09:39:08.354Z,157.93
2017-11-08T09:41:35.781Z,173.67
2017-11-08T09:44:03.261Z,159.90
2017-11-08T09:46:30.742Z,152.33
2017-11-08T09:48:58.169Z,158.57
2017-11-08T09:51:25.635Z,178.37
2017-11-08T09:53:53.197Z,169.63
2017-11-08T09:56:20.649Z,158.77
2017-11-08T09:58:48.105Z,176.87
2017-11-08T10:01:15.576Z,168.83
2017-11-08T10:03:43.016Z,183.50
2017-11-08T10:06:10.442Z,186.23
2017-11-08T10:08:40.717Z,188.43
2017-11-08T10:11:08.197Z,192.73
2017-11-08T10:13:35.668Z,184.77
2017-11-08T10:16:03.117Z,184.60
2017-11-08T10:18:30.605Z,189.07
2017-11-08T10:21:00.401Z,201.00
2017-11-08T10:23:28.694Z,183.73
2017-11-08T10:25:56.125Z,197.70
2017-11-08T10:28:23.562Z,240.15
2017-11-08T10:30:51.001Z,216.53
2017-11-08T10:33:18.485Z,211.50
2017-11-08T10:35:45.921Z,188.10
2017-11-08T10:38:13.377Z,201.30
2017-11-08T10:40:40.805Z,201.17
2017-11-08T10:43:08.998Z,193.20
2017-11-08T10:45:36.443Z,196.63
2017-11-08T10:48:03.911Z,186.10
2017-11-08T10:50:31.346Z,190.73
2017-11-08T10:53:02.826Z,179.60
2017-11-08T10:55:30.255Z,192.23
2017-11-08T10:57:57.731Z,183.53
2017-11-08T11:00:30.859Z,195.37
2017-11-08T11:02:58.306Z,194.20
2017-11-08T11:05:25.734Z,203.67
2017-11-08T11:07:53.178Z,204.77
2017-11-08T11:10:20.657Z,216.20
2017-11-08T11:12:48.099Z,186.87
2017-11-08T11:15:15.577Z,189.73
2017-11-08T11:17:43.007Z,178.67
2017-11-08T11:20:10.490Z,186.43
2017-11-08T11:22:38.147Z,182.87
2017-11-08T11:25:05.598Z,176.93
2017-11-08T11:27:33.036Z,165.57
2017-11-08T11:30:00.483Z,173.90
2017-11-08T11:32:29.691Z,174.47
2017-11-08T11:34:57.203Z,167.80
2017-11-08T11:37:24.642Z,156.33
2017-11-08T11:39:52.109Z,152.17
2017-11-08T11:42:19.539Z,144.27
2017-11-08T11:44:46.993Z,149.37
2017-11-08T11:47:14.467Z,133.77
2017-11-08T11:49:41.934Z,136.57
2017-11-08T11:52:09.378Z,137.23
2017-11-08T11:54:36.838Z,132.07
2017-11-08T11:57:04.275Z,122.33
2017-11-08T11:59:31.725Z,127.47
2017-11-08T12:01:59.155Z,131.17
2017-11-08T12:04:26.671Z,128.87
2017-11-08T12:06:54.126Z,125.07
2017-11-08T12:09:21.562Z,120.23
2017-11-08T12:11:49.064Z,120.23
2017-11-08T12:14:16.500Z,109.63
2017-11-08T12:16:43.948Z,117.40
2017-11-08T12:19:11.422Z,106.70
2017-11-08T12:21:38.974Z,98.13
2017-11-08T12:24:06.527Z,112.47
2017-11-08T12:26:33.945Z,110.20
2017-11-08T12:29:02.182Z,113.17
2017-11-08T12:31:29.615Z,105.47
2017-11-08T12:33:57.084Z,107.43
2017-11-08T12:36:24.538Z,110.50
2017-11-08T12:38:52.737Z,111.33
2017-11-08T12:41:20.275Z,108.93
2017-11-08T12:43:48.487Z,113.27
2017-11-08T12:46:16.729Z,103.57
2017-11-08T12:48:44.153Z,109.83
2017-11-08T12:51:11.599Z,108.57
2017-11-08T12:53:39.799Z,99.23
2017-11-08T12:56:07.237Z,109.93
2017-11-08T12:58:35.450Z,115.60
2017-11-08T13:01:02.905Z,111.10
2017-11-08T13:03:30.364Z,115.70
2017-11-08T13:06:02.854Z,112.00
2017-11-08T13:08:30.489Z,101.10
2017-11-08T13:11:06.341Z,112.37
2017-11-08T13:13:33.778Z,101.93
2017-11-08T13:16:01.985Z,155.70
2017-11-08T13:18:29.440Z,159.57
2017-11-08T13:20:56.874Z,125.03
2017-11-08T13:23:24.476Z,167.33
2017-11-08T13:25:51.917Z,110.23
2017-11-08T13:28:19.347Z,123.43
2017-11-08T13:30:46.777Z,124.70
2017-11-08T13:33:14.983Z,108.47
2017-11-08T13:35:42.406Z,115.53
2017-11-08T13:38:10.639Z,104.20
2017-11-08T13:40:38.074Z,101.03
2017-11-08T13:43:05.510Z,103.93
2017-11-08T13:45:33.717Z,100.57
2017-11-08T13:48:01.156Z,98.40
2017-11-08T13:50:28.580Z,93.70
2017-11-08T13:52:56.813Z,87.80
2017-11-08T13:55:24.262Z,98.70
2017-11-08T13:57:52.588Z,90.70
2017-11-08T14:00:20.782Z,87.13
2017-11-08T14:02:48.981Z,95.37
2017-11-08T14:05:16.458Z,100.20
2017-11-08T14:07:43.913Z,106.87
2017-11-08T14:10:11.422Z,92.97
2017-11-08T14:12:39.615Z,97.43
2017-11-08T14:15:07.042Z,97.53
2017-11-08T14:17:34.558Z,100.30
2017-11-08T14:20:02.023Z,93.83
2017-11-08T14:22:29.454Z,92.93
2017-11-08T14:24:56.890Z,96.83
2017-11-08T14:27:25.109Z,93.90
2017-11-08T14:29:52.538Z,92.07
2017-11-08T14:32:19.981Z,87.90
2017-11-08T14:34:48.201Z,91.23
2017-11-08T14:37:15.626Z,93.80
2017-11-08T14:39:43.070Z,92.07
2017-11-08T14:42:17.042Z,91.47
2017-11-08T14:44:45.274Z,99.23
2017-11-08T14:47:12.713Z,127.73
2017-11-08T14:49:40.928Z,97.83
2017-11-08T14:52:08.359Z,90.07
2017-11-08T14:54:42.465Z,89.90
2017-11-08T14:57:10.678Z,87.50
2017-11-08T14:59:38.106Z,93.57
2017-11-08T15:02:05.594Z,93.47
2017-11-08T15:04:33.950Z,100.33
2017-11-08T15:07:01.423Z,87.83
2017-11-08T15:09:28.858Z,103.40
2017-11-08T15:11:58.250Z,91.57
2017-11-08T15:14:26.465Z,96.67
2017-11-08T15:16:54.661Z,90.80
2017-11-08T15:19:22.104Z,99.40
2017-11-08T15:21:50.318Z,100.03
2017-11-08T15:24:17.799Z,109.33
2017-11-08T15:26:45.339Z,99.33
2017-11-08T15:29:31.322Z,98.77
2017-11-08T15:31:58.769Z,93.57
2017-11-08T15:34:27.232Z,95.03
2017-11-08T15:36:54.709Z,107.70
2017-11-08T15:39:22.156Z,102.12
2017-11-08T15:41:50.349Z,90.63
2017-11-08T15:44:17.811Z,91.43
2017-11-08T15:47:00.030Z,99.87
2017-11-08T15:49:27.460Z,93.47
2017-11-08T15:51:54.878Z,91.30
2017-11-08T15:54:23.091Z,100.23
2017-11-08T15:56:50.542Z,102.87
2017-11-08T15:59:18.007Z,95.63
2017-11-08T16:01:45.562Z,104.97
2017-11-08T16:04:12.991Z,97.93
2017-11-08T16:06:40.478Z,94.40
2017-11-08T16:09:09.984Z,100.87
2017-11-08T16:11:37.444Z,111.30
2017-11-08T16:14:04.869Z,87.97
2017-11-08T16:16:33.148Z,101.63
2017-11-08T16:19:02.478Z,106.00
2017-11-08T16:21:30.875Z,105.67
2017-11-08T16:23:58.314Z,111.70
2017-11-08T16:26:25.743Z,108.93
2017-11-08T16:28:53.179Z,127.20
2017-11-08T16:31:21.389Z,124.57
2017-11-08T16:33:48.822Z,114.80
2017-11-08T16:36:16.314Z,116.60
2017-11-08T16:38:43.770Z,125.73
2017-11-08T16:41:11.218Z,106.83
2017-11-08T16:43:38.649Z,109.77
2017-11-08T16:46:08.196Z,96.27
2017-11-08T16:48:35.606Z,108.57
2017-11-08T16:51:03.823Z,113.03
2017-11-08T16:53:31.270Z,113.03
2017-11-08T16:55:58.740Z,122.25
2017-11-08T16:58:26.178Z,107.93
2017-11-08T17:00:53.650Z,110.00
2017-11-08T17:03:21.083Z,109.57
2017-11-08T17:05:48.519Z,100.97
2017-11-08T17:08:16.747Z,99.57
2017-11-08T17:10:44.198Z,113.03
2017-11-08T17:13:11.621Z,104.93
2017-11-08T17:15:39.114Z,103.67
2017-11-08T17:18:06.570Z,107.37
2017-11-08T17:20:34.002Z,105.10
2017-11-08T17:23:01.493Z,98.93
2017-11-08T17:25:28.911Z,99.23
2017-11-08T17:27:56.351Z,103.47
2017-11-08T17:30:24.558Z,107.40
2017-11-08T17:32:52.022Z,87.27
2017-11-08T17:35:19.454Z,111.67
2017-11-08T17:37:46.902Z,101.10
2017-11-08T17:40:15.093Z,111.20
2017-11-08T17:42:42.538Z,86.17
2017-11-08T17:45:10.039Z,104.77
2017-11-08T17:47:37.474Z,115.97
2017-11-08T17:50:05.155Z,106.37
2017-11-08T17:52:32.600Z,107.20
2017-11-08T17:55:00.065Z,98.70
2017-11-08T17:57:27.491Z,112.70
2017-11-08T17:59:54.933Z,100.90
2017-11-08T18:02:23.145Z,111.90
2017-11-08T18:04:50.592Z,109.07
2017-11-08T18:07:18.054Z,102.67
2017-11-08T18:09:45.465Z,115.53
2017-11-08T18:12:13.666Z,112.13
2017-11-08T18:14:41.111Z,104.60
2017-11-08T18:17:09.317Z,104.50
2017-11-08T18:19:36.746Z,102.93
2017-11-08T18:22:04.238Z,101.97
2017-11-08T18:24:31.694Z,120.03
2017-11-08T18:26:59.150Z,101.17
2017-11-08T18:29:26.614Z,110.23
2017-11-08T18:31:54.041Z,106.60
2017-11-08T18:34:21.526Z,99.93
2017-11-08T18:36:49.004Z,111.00
2017-11-08T18:39:16.447Z,116.70
2017-11-08T18:41:43.865Z,104.27
2017-11-08T18:44:11.354Z,105.07
2017-11-08T18:46:38.782Z,109.43
2017-11-08T18:49:06.211Z,104.43
2017-11-08T18:51:34.445Z,107.20
2017-11-08T18:54:01.869Z,111.03
2017-11-08T18:56:29.300Z,95.00
2017-11-08T18:58:57.561Z,97.23
2017-11-08T19:01:24.990Z,105.27
2017-11-08T19:03:52.424Z,111.50
2017-11-08T19:06:19.863Z,110.80
2017-11-08T19:08:48.078Z,124.90
2017-11-08T19:11:15.506Z,114.27
2017-11-08T19:13:42.993Z,110.67
2017-11-08T19:16:10.431Z,104.00
2017-11-08T19:18:37.898Z,99.60
2017-11-08T19:21:05.350Z,111.87
2017-11-08T19:23:32.825Z,121.53
2017-11-08T19:26:00.251Z,111.10
2017-11-08T19:28:27.704Z,111.67
2017-11-08T19:30:55.133Z,117.97
2017-11-08T19:33:22.571Z,128.60
2017-11-08T19:35:50.014Z,118.50
2017-11-08T19:38:17.448Z,119.70
2017-11-08T19:40:44.883Z,121.97
2017-11-08T19:43:12.326Z,129.20
2017-11-08T19:45:40.537Z,121.30
2017-11-08T19:48:07.955Z,127.63
2017-11-08T19:50:36.182Z,123.33
2017-11-08T19:53:03.613Z,137.17
2017-11-08T19:55:31.094Z,135.60
2017-11-08T19:57:58.547Z,131.37
2017-11-08T20:00:26.007Z,157.20
2017-11-08T20:02:53.442Z,158.77
2017-11-08T20:05:20.886Z,186.10
2017-11-08T20:07:49.084Z,159.47
2017-11-08T20:10:16.509Z,185.27
2017-11-08T20:12:44.831Z,183.63
2017-11-08T20:15:12.286Z,206.37
2017-11-08T20:17:39.718Z,207.43
2017-11-08T20:20:07.200Z,203.77
2017-11-08T20:22:34.658Z,259.13
2017-11-08T20:25:02.115Z,279.87
2017-11-08T20:27:29.559Z,258.33
2017-11-08T20:29:56.982Z,241.97
2017-11-08T20:32:25.182Z,261.03
2017-11-08T20:34:52.658Z,276.10
2017-11-08T20:37:20.086Z,285.60
2017-11-08T20:39:47.524Z,345.87
2017-11-08T20:42:15.748Z,319.43
2017-11-08T20:44:43.202Z,339.03
2017-11-08T20:47:10.634Z,284.60
2017-11-08T20:49:38.073Z,370.30
2017-11-08T20:52:06.290Z,345.30
2017-11-08T20:54:33.726Z,344.27
2017-11-08T20:57:01.210Z,353.47
2017-11-08T20:59:28.649Z,351.43
2017-11-08T21:01:56.099Z,290.40
2017-11-08T21:04:24.390Z,266.17
2017-11-08T21:06:51.828Z,293.93
2017-11-08T21:09:19.313Z,243.30
2017-11-08T21:11:46.760Z,272.23
2017-11-08T21:14:14.177Z,244.47
2017-11-08T21:16:42.377Z,241.23
2017-11-08T21:19:09.813Z,230.23
2017-11-08T21:21:38.033Z,220.70
2017-11-08T21:24:05.459Z,229.33
2017-11-08T21:26:32.902Z,246.63
2017-11-08T21:29:01.127Z,234.53
2017-11-08T21:31:28.563Z,222.43
2017-11-08T21:33:56.033Z,207.33
2017-11-08T21:36:23.490Z,217.13
2017-11-08T21:38:50.947Z,224.40
2017-11-08T21:41:18.415Z,266.90
2017-11-08T21:43:45.859Z,230.37
2017-11-08T21:46:13.289Z,235.63
2017-11-08T21:48:40.775Z,231.93
2017-11-08T21:51:08.203Z,238.97
2017-11-08T21:53:35.642Z,253.57
2017-11-08T21:56:03.862Z,251.47
2017-11-08T21:58:31.326Z,261.77
2017-11-08T22:00:59.274Z,261.40
2017-11-08T22:03:26.840Z,253.50
2017-11-08T22:05:54.270Z,243.33
2017-11-08T22:08:21.770Z,226.77
2017-11-08T22:10:49.216Z,243.27
2017-11-08T22:13:16.684Z,259.73
2017-11-08T22:15:44.114Z,221.53
2017-11-08T22:18:11.565Z,244.33
2017-11-08T22:20:45.810Z,229.10
2017-11-08T22:23:13.338Z,225.80
2017-11-08T22:25:41.518Z,240.10
2017-11-08T22:28:08.949Z,243.77
2017-11-08T22:30:37.206Z,243.80
2017-11-08T22:33:04.631Z,254.90
2017-11-08T22:35:32.086Z,281.03
2017-11-08T22:37:59.549Z,257.63
2017-11-08T22:40:26.997Z,267.87
2017-11-08T22:42:54.458Z,295.03
2017-11-08T22:45:21.902Z,270.97
2017-11-08T22:47:49.378Z,264.77
2017-11-08T22:50:16.806Z,277.77
2017-11-08T22:52:44.250Z,268.83
2017-11-08T22:55:12.451Z,272.40
2017-11-08T22:57:39.885Z,254.50
2017-11-08T23:00:07.379Z,246.03
2017-11-08T23:02:34.807Z,297.17
2017-11-08T23:05:02.286Z,270.80
2017-11-08T23:07:29.743Z,294.73
2017-11-08T23:09:57.198Z,251.67
2017-11-08T23:12:24.627Z,289.03
2017-11-08T23:14:52.114Z,278.10
2017-11-08T23:17:19.552Z,280.73
2017-11-08T23:19:46.977Z,264.73
2017-11-08T23:22:15.206Z,252.93
2017-11-08T23:24:42.642Z,224.47
2017-11-08T23:27:10.122Z,251.03
2017-11-08T23:29:37.695Z,251.77
2017-11-08T23:32:05.140Z,258.27
2017-11-08T23:34:32.569Z,238.67
2017-11-08T23:37:00.052Z,267.87
2017-11-08T23:39:27.487Z,247.80
2017-11-08T23:41:54.968Z,271.93
2017-11-08T23:44:22.532Z,261.97
2017-11-08T23:46:49.961Z,261.63
2017-11-08T23:49:17.383Z,237.57
2017-11-08T23:51:44.896Z,255.87
2017-11-08T23:54:12.326Z,225.27
2017-11-08T23:56:39.756Z,230.60
2017-11-08T23:59:12.821Z,233.40
